PWSweather.com
Personal Weather Stations
Station Observations
IPORTUGA89
BarosaPT

BarosaPT

Lat: 39.754028, Lon: -8.843

Elevation: 98

Station Type: Davis Vp2

High Low Average
Temperature 74.8°F23.8°C 58.5°F14.7°C 66.6°F19.2°C
Dew Point 63.1°F17.3°C 56.1°F13.4°C 60.0°F15.6°C
Winds 14.1 mph 22.7 kmh Calm Calm 7.0 mph WNW11.3 kmh WNW
Wind Gusts 27.1 mph43.6 kmh 2.0 mph3.2 kmh 14.0 mph22.5 kmh
Humidity 93% 59% 80%
Pressure 30.20 in1022.7 mb 30.15 in1021.0 mb -
Precipitation 0.00 in0.0 mm - -
Hour Temp Dew Point Humidity Winds Wind Gusts Pressure Precip Precip Rate Daily Precip Total
12:08 AM 63.1°F17.3°C 61.2°F16.2°C 93% 4.9 mph NW7.9 kmh NW 11.0 mph17.7 kmh 30.16 in1021.3 mb 0.00 in0.0 mm 0.00 in0.0 mm 0.00 in0.0 mm
12:18 AM 63.1°F17.3°C 61.2°F16.2°C 93% 6.0 mph NW9.7 kmh NW 12.1 mph19.5 kmh 30.16 in1021.3 mb 0.00 in0.0 mm 0.00 in0.0 mm 0.00 in0.0 mm
12:28 AM 63.3°F17.4°C 61.3°F16.3°C 93% 4.9 mph NW7.9 kmh NW 11.0 mph17.7 kmh 30.16 in1021.3 mb 0.00 in0.0 mm 0.00 in0.0 mm 0.00 in0.0 mm
12:48 AM 63.3°F17.4°C 61.3°F16.3°C 93% 6.0 mph W9.7 kmh W 11.0 mph17.7 kmh 30.16 in1021.3 mb 0.00 in0.0 mm 0.00 in0.0 mm 0.00 in0.0 mm
12:58 AM 63.3°F17.4°C 61.3°F16.3°C 93% 6.0 mph NW9.7 kmh NW 13.0 mph20.9 kmh 30.16 in1021.3 mb 0.00 in0.0 mm 0.00 in0.0 mm 0.00 in0.0 mm
01:08 AM 63.3°F17.4°C 61.0°F16.1°C 92% 4.0 mph NNW6.4 kmh NNW 14.1 mph22.7 kmh 30.16 in1021.3 mb 0.00 in0.0 mm 0.00 in0.0 mm 0.00 in0.0 mm
01:18 AM 63.3°F17.4°C 61.0°F16.1°C 92% 6.0 mph NW9.7 kmh NW 14.1 mph22.7 kmh 30.16 in1021.3 mb 0.00 in0.0 mm 0.00 in0.0 mm 0.00 in0.0 mm
01:28 AM 63.3°F17.4°C 61.0°F16.1°C 92% 6.0 mph N9.7 kmh N 12.1 mph19.5 kmh 30.16 in1021.3 mb 0.00 in0.0 mm 0.00 in0.0 mm 0.00 in0.0 mm
01:38 AM 63.3°F17.4°C 61.0°F16.1°C 92% 6.0 mph WNW9.7 kmh WNW 11.0 mph17.7 kmh 30.16 in1021.3 mb 0.00 in0.0 mm 0.00 in0.0 mm 0.00 in0.0 mm
01:48 AM 63.3°F17.4°C 61.0°F16.1°C 92% 4.9 mph N7.9 kmh N 10.1 mph16.3 kmh 30.16 in1021.3 mb 0.00 in0.0 mm 0.00 in0.0 mm 0.00 in0.0 mm
01:58 AM 63.3°F17.4°C 61.0°F16.1°C 92% 6.0 mph NW9.7 kmh NW 11.0 mph17.7 kmh 30.15 in1021.0 mb 0.00 in0.0 mm 0.00 in0.0 mm 0.00 in0.0 mm
02:08 AM 63.1°F17.3°C 60.8°F16.0°C 92% 6.9 mph 11.1 kmh 14.1 mph22.7 kmh 30.15 in1021.0 mb 0.00 in0.0 mm 0.00 in0.0 mm 0.00 in0.0 mm
02:18 AM 63.1°F17.3°C 60.4°F15.8°C 91% 4.9 mph NNW7.9 kmh NNW 10.1 mph16.3 kmh 30.15 in1021.0 mb 0.00 in0.0 mm 0.00 in0.0 mm 0.00 in0.0 mm
02:28 AM 63.1°F17.3°C 60.4°F15.8°C 91% 4.9 mph N7.9 kmh N 10.1 mph16.3 kmh 30.16 in1021.3 mb 0.00 in0.0 mm 0.00 in0.0 mm 0.00 in0.0 mm
02:38 AM 63.1°F17.3°C 60.4°F15.8°C 91% 6.0 mph NNW9.7 kmh NNW 12.1 mph19.5 kmh 30.16 in1021.3 mb 0.00 in0.0 mm 0.00 in0.0 mm 0.00 in0.0 mm
02:48 AM 63.1°F17.3°C 60.4°F15.8°C 91% 4.9 mph NW7.9 kmh NW 10.1 mph16.3 kmh 30.16 in1021.3 mb 0.00 in0.0 mm 0.00 in0.0 mm 0.00 in0.0 mm
02:58 AM 63.1°F17.3°C 60.4°F15.8°C 91% 6.0 mph NW9.7 kmh NW 12.1 mph19.5 kmh 30.16 in1021.3 mb 0.00 in0.0 mm 0.00 in0.0 mm 0.00 in0.0 mm
03:08 AM 63.1°F17.3°C 60.4°F15.8°C 91% 6.0 mph NNW9.7 kmh NNW 12.1 mph19.5 kmh 30.16 in1021.3 mb 0.00 in0.0 mm 0.00 in0.0 mm 0.00 in0.0 mm
03:18 AM 63.1°F17.3°C 60.4°F15.8°C 91% 6.0 mph NNW9.7 kmh NNW 15.0 mph24.1 kmh 30.16 in1021.3 mb 0.00 in0.0 mm 0.00 in0.0 mm 0.00 in0.0 mm
03:28 AM 63.1°F17.3°C 60.4°F15.8°C 91% 6.0 mph N9.7 kmh N 11.0 mph17.7 kmh 30.16 in1021.3 mb 0.00 in0.0 mm 0.00 in0.0 mm 0.00 in0.0 mm
03:38 AM 63.1°F17.3°C 60.4°F15.8°C 91% 6.0 mph NW9.7 kmh NW 13.0 mph20.9 kmh 30.16 in1021.3 mb 0.00 in0.0 mm 0.00 in0.0 mm 0.00 in0.0 mm
03:48 AM 63.0°F17.2°C 60.3°F15.7°C 91% 6.0 mph NNE9.7 kmh NNE 14.1 mph22.7 kmh 30.16 in1021.3 mb 0.00 in0.0 mm 0.00 in0.0 mm 0.00 in0.0 mm
03:58 AM 63.0°F17.2°C 60.3°F15.7°C 91% 6.0 mph N9.7 kmh N 14.1 mph22.7 kmh 30.16 in1021.3 mb 0.00 in0.0 mm 0.00 in0.0 mm 0.00 in0.0 mm
04:08 AM 63.0°F17.2°C 60.3°F15.7°C 91% 6.0 mph NNW9.7 kmh NNW 11.0 mph17.7 kmh 30.16 in1021.3 mb 0.00 in0.0 mm 0.00 in0.0 mm 0.00 in0.0 mm
04:18 AM 63.0°F17.2°C 60.3°F15.7°C 91% 6.0 mph NNW9.7 kmh NNW 13.0 mph20.9 kmh 30.16 in1021.3 mb 0.00 in0.0 mm 0.00 in0.0 mm 0.00 in0.0 mm
04:28 AM 63.0°F17.2°C 60.3°F15.7°C 91% 4.9 mph NW7.9 kmh NW 12.1 mph19.5 kmh 30.15 in1021.0 mb 0.00 in0.0 mm 0.00 in0.0 mm 0.00 in0.0 mm
04:38 AM 62.8°F17.1°C 60.1°F15.6°C 91% 4.9 mph NNW7.9 kmh NNW 10.1 mph16.3 kmh 30.16 in1021.3 mb 0.00 in0.0 mm 0.00 in0.0 mm 0.00 in0.0 mm
04:49 AM 62.8°F17.1°C 59.7°F15.4°C 90% 4.9 mph N7.9 kmh N 10.1 mph16.3 kmh 30.16 in1021.3 mb 0.00 in0.0 mm 0.00 in0.0 mm 0.00 in0.0 mm
04:59 AM 62.8°F17.1°C 59.7°F15.4°C 90% 6.0 mph NW9.7 kmh NW 11.0 mph17.7 kmh 30.16 in1021.3 mb 0.00 in0.0 mm 0.00 in0.0 mm 0.00 in0.0 mm
05:09 AM 62.8°F17.1°C 59.7°F15.4°C 90% 4.9 mph NW7.9 kmh NW 11.0 mph17.7 kmh 30.16 in1021.3 mb 0.00 in0.0 mm 0.00 in0.0 mm 0.00 in0.0 mm
05:19 AM 62.8°F17.1°C 59.7°F15.4°C 90% 4.9 mph N7.9 kmh N 11.0 mph17.7 kmh 30.16 in1021.3 mb 0.00 in0.0 mm 0.00 in0.0 mm 0.00 in0.0 mm
05:29 AM 62.8°F17.1°C 59.7°F15.4°C 90% 6.0 mph NNE9.7 kmh NNE 12.1 mph19.5 kmh 30.16 in1021.3 mb 0.00 in0.0 mm 0.00 in0.0 mm 0.00 in0.0 mm
05:39 AM 62.6°F17.0°C 59.4°F15.2°C 89% 4.9 mph NW7.9 kmh NW 11.0 mph17.7 kmh 30.16 in1021.3 mb 0.00 in0.0 mm 0.00 in0.0 mm 0.00 in0.0 mm
05:49 AM 62.8°F17.1°C 58.8°F14.9°C 87% 6.9 mph N11.1 kmh N 16.1 mph25.9 kmh 30.16 in1021.3 mb 0.00 in0.0 mm 0.00 in0.0 mm 0.00 in0.0 mm
05:59 AM 62.8°F17.1°C 58.5°F14.7°C 86% 8.9 mph N14.3 kmh N 17.0 mph27.4 kmh 30.17 in1021.7 mb 0.00 in0.0 mm 0.00 in0.0 mm 0.00 in0.0 mm
06:09 AM 63.0°F17.2°C 58.5°F14.7°C 85% 8.1 mph NNW13.0 kmh NNW 16.1 mph25.9 kmh 30.17 in1021.7 mb 0.00 in0.0 mm 0.00 in0.0 mm 0.00 in0.0 mm
06:19 AM 63.0°F17.2°C 58.5°F14.7°C 85% 6.9 mph NNW11.1 kmh NNW 15.0 mph24.1 kmh 30.17 in1021.7 mb 0.00 in0.0 mm 0.00 in0.0 mm 0.00 in0.0 mm
06:29 AM 63.0°F17.2°C 58.5°F14.7°C 85% 6.0 mph NW9.7 kmh NW 12.1 mph19.5 kmh 30.18 in1022.0 mb 0.00 in0.0 mm 0.00 in0.0 mm 0.00 in0.0 mm
06:39 AM 63.0°F17.2°C 58.5°F14.7°C 85% 8.1 mph WNW13.0 kmh WNW 15.0 mph24.1 kmh 30.18 in1022.0 mb 0.00 in0.0 mm 0.00 in0.0 mm 0.00 in0.0 mm
06:49 AM 63.0°F17.2°C 58.5°F14.7°C 85% 8.1 mph NW13.0 kmh NW 14.1 mph22.7 kmh 30.18 in1022.0 mb 0.00 in0.0 mm 0.00 in0.0 mm 0.00 in0.0 mm
06:59 AM 63.1°F17.3°C 58.6°F14.8°C 85% 6.9 mph 11.1 kmh 14.1 mph22.7 kmh 30.18 in1022.0 mb 0.00 in0.0 mm 0.00 in0.0 mm 0.00 in0.0 mm
07:09 AM 63.1°F17.3°C 58.6°F14.8°C 85% 6.9 mph NW11.1 kmh NW 12.1 mph19.5 kmh 30.18 in1022.0 mb 0.00 in0.0 mm 0.00 in0.0 mm 0.00 in0.0 mm
07:19 AM 63.1°F17.3°C 58.8°F14.9°C 86% 6.0 mph NNW9.7 kmh NNW 12.1 mph19.5 kmh 30.19 in1022.4 mb 0.00 in0.0 mm 0.00 in0.0 mm 0.00 in0.0 mm
07:29 AM 63.1°F17.3°C 58.6°F14.8°C 85% 6.9 mph N11.1 kmh N 13.0 mph20.9 kmh 30.19 in1022.4 mb 0.00 in0.0 mm 0.00 in0.0 mm 0.00 in0.0 mm
07:39 AM 63.3°F17.4°C 58.8°F14.9°C 85% 6.9 mph NNW11.1 kmh NNW 11.0 mph17.7 kmh 30.19 in1022.4 mb 0.00 in0.0 mm 0.00 in0.0 mm 0.00 in0.0 mm
07:49 AM 63.5°F17.5°C 58.8°F14.9°C 85% 6.0 mph NW9.7 kmh NW 12.1 mph19.5 kmh 30.19 in1022.4 mb 0.00 in0.0 mm 0.00 in0.0 mm 0.00 in0.0 mm
07:59 AM 63.7°F17.6°C 59.0°F15.0°C 85% 6.9 mph N11.1 kmh N 14.1 mph22.7 kmh 30.19 in1022.4 mb 0.00 in0.0 mm 0.00 in0.0 mm 0.00 in0.0 mm
08:09 AM 64.2°F17.9°C 59.4°F15.2°C 84% 6.0 mph N9.7 kmh N 12.1 mph19.5 kmh 30.19 in1022.4 mb 0.00 in0.0 mm 0.00 in0.0 mm 0.00 in0.0 mm
08:19 AM 64.8°F18.2°C 59.5°F15.3°C 83% 4.9 mph N7.9 kmh N 10.1 mph16.3 kmh 30.19 in1022.4 mb 0.00 in0.0 mm 0.00 in0.0 mm 0.00 in0.0 mm
08:29 AM 65.1°F18.4°C 59.5°F15.3°C 82% 6.0 mph NNW9.7 kmh NNW 13.0 mph20.9 kmh 30.19 in1022.4 mb 0.00 in0.0 mm 0.00 in0.0 mm 0.00 in0.0 mm
08:39 AM 65.5°F18.6°C 59.9°F15.5°C 82% 8.1 mph N13.0 kmh N 15.0 mph24.1 kmh 30.19 in1022.4 mb 0.00 in0.0 mm 0.00 in0.0 mm 0.00 in0.0 mm
08:49 AM 65.7°F18.7°C 59.7°F15.4°C 81% 8.1 mph N13.0 kmh N 14.1 mph22.7 kmh 30.18 in1022.0 mb 0.00 in0.0 mm 0.00 in0.0 mm 0.00 in0.0 mm
08:59 AM 66.4°F19.1°C 60.4°F15.8°C 81% 8.1 mph NW13.0 kmh NW 14.1 mph22.7 kmh 30.19 in1022.4 mb 0.00 in0.0 mm 0.00 in0.0 mm 0.00 in0.0 mm
09:09 AM 66.9°F19.4°C 60.6°F15.9°C 80% 8.1 mph NW13.0 kmh NW 16.1 mph25.9 kmh 30.18 in1022.0 mb 0.00 in0.0 mm 0.00 in0.0 mm 0.00 in0.0 mm
09:19 AM 67.6°F19.8°C 61.0°F16.1°C 79% 4.9 mph N7.9 kmh N 10.1 mph16.3 kmh 30.19 in1022.4 mb 0.00 in0.0 mm 0.00 in0.0 mm 0.00 in0.0 mm
09:29 AM 68.5°F20.3°C 61.3°F16.3°C 78% 6.9 mph 11.1 kmh 13.0 mph20.9 kmh 30.18 in1022.0 mb 0.00 in0.0 mm 0.00 in0.0 mm 0.00 in0.0 mm
09:39 AM 69.3°F20.7°C 61.7°F16.5°C 77% 8.1 mph NW13.0 kmh NW 14.1 mph22.7 kmh 30.18 in1022.0 mb 0.00 in0.0 mm 0.00 in0.0 mm 0.00 in0.0 mm
09:49 AM 70.2°F21.2°C 61.9°F16.6°C 75% 8.9 mph NNE14.3 kmh NNE 14.1 mph22.7 kmh 30.18 in1022.0 mb 0.00 in0.0 mm 0.00 in0.0 mm 0.00 in0.0 mm
09:59 AM 70.7°F21.5°C 62.4°F16.9°C 75% 6.9 mph NW11.1 kmh NW 13.0 mph20.9 kmh 30.18 in1022.0 mb 0.00 in0.0 mm 0.00 in0.0 mm 0.00 in0.0 mm
10:09 AM 71.1°F21.7°C 61.5°F16.4°C 72% 10.1 mph NNW16.3 kmh NNW 19.9 mph32.0 kmh 30.18 in1022.0 mb 0.00 in0.0 mm 0.00 in0.0 mm 0.00 in0.0 mm
10:19 AM 72.3°F22.4°C 63.1°F17.3°C 73% 6.9 mph W11.1 kmh W 13.0 mph20.9 kmh 30.18 in1022.0 mb 0.00 in0.0 mm 0.00 in0.0 mm 0.00 in0.0 mm
10:29 AM 73.0°F22.8°C 62.2°F16.8°C 69% 6.9 mph NNW11.1 kmh NNW 14.1 mph22.7 kmh 30.18 in1022.0 mb 0.00 in0.0 mm 0.00 in0.0 mm 0.00 in0.0 mm
10:39 AM 73.6°F23.1°C 62.8°F17.1°C 69% 8.1 mph NW13.0 kmh NW 14.1 mph22.7 kmh 30.18 in1022.0 mb 0.00 in0.0 mm 0.00 in0.0 mm 0.00 in0.0 mm
10:49 AM 73.8°F23.2°C 62.6°F17.0°C 68% 10.1 mph NNW16.3 kmh NNW 17.0 mph27.4 kmh 30.18 in1022.0 mb 0.00 in0.0 mm 0.00 in0.0 mm 0.00 in0.0 mm
10:59 AM 74.1°F23.4°C 63.0°F17.2°C 68% 8.9 mph N14.3 kmh N 19.0 mph30.6 kmh 30.18 in1022.0 mb 0.00 in0.0 mm 0.00 in0.0 mm 0.00 in0.0 mm
11:09 AM 73.9°F23.3°C 62.2°F16.8°C 67% 8.9 mph NW14.3 kmh NW 17.9 mph28.8 kmh 30.18 in1022.0 mb 0.00 in0.0 mm 0.00 in0.0 mm 0.00 in0.0 mm
11:19 AM 73.8°F23.2°C 62.1°F16.7°C 67% 11.0 mph NW17.7 kmh NW 19.9 mph32.0 kmh 30.18 in1022.0 mb 0.00 in0.0 mm 0.00 in0.0 mm 0.00 in0.0 mm
11:29 AM 73.0°F22.8°C 61.9°F16.6°C 68% 11.0 mph NW17.7 kmh NW 19.9 mph32.0 kmh 30.18 in1022.0 mb 0.00 in0.0 mm 0.00 in0.0 mm 0.00 in0.0 mm
11:39 AM 72.9°F22.7°C 62.1°F16.7°C 69% 11.0 mph NNW17.7 kmh NNW 19.9 mph32.0 kmh 30.18 in1022.0 mb 0.00 in0.0 mm 0.00 in0.0 mm 0.00 in0.0 mm
11:49 AM 72.7°F22.6°C 61.9°F16.6°C 69% 11.0 mph NW17.7 kmh NW 19.9 mph32.0 kmh 30.18 in1022.0 mb 0.00 in0.0 mm 0.00 in0.0 mm 0.00 in0.0 mm
11:59 AM 72.9°F22.7°C 62.4°F16.9°C 70% 11.0 mph NW17.7 kmh NW 19.0 mph30.6 kmh 30.18 in1022.0 mb 0.00 in0.0 mm 0.00 in0.0 mm 0.00 in0.0 mm
12:09 PM 72.7°F22.6°C 62.2°F16.8°C 70% 12.1 mph NW19.5 kmh NW 19.9 mph32.0 kmh 30.18 in1022.0 mb 0.00 in0.0 mm 0.00 in0.0 mm 0.00 in0.0 mm
12:19 PM 73.2°F22.9°C 62.4°F16.9°C 69% 11.0 mph NNW17.7 kmh NNW 21.0 mph33.8 kmh 30.18 in1022.0 mb 0.00 in0.0 mm 0.00 in0.0 mm 0.00 in0.0 mm
12:29 PM 73.0°F22.8°C 62.2°F16.8°C 69% 12.1 mph NW19.5 kmh NW 21.0 mph33.8 kmh 30.18 in1022.0 mb 0.00 in0.0 mm 0.00 in0.0 mm 0.00 in0.0 mm
12:39 PM 73.8°F23.2°C 62.6°F17.0°C 68% 11.0 mph NNW17.7 kmh NNW 19.9 mph32.0 kmh 30.18 in1022.0 mb 0.00 in0.0 mm 0.00 in0.0 mm 0.00 in0.0 mm
12:49 PM 73.9°F23.3°C 62.2°F16.8°C 67% 11.0 mph WNW17.7 kmh WNW 19.0 mph30.6 kmh 30.17 in1021.7 mb 0.00 in0.0 mm 0.00 in0.0 mm 0.00 in0.0 mm
12:59 PM 74.1°F23.4°C 62.4°F16.9°C 67% 10.1 mph NW16.3 kmh NW 17.9 mph28.8 kmh 30.17 in1021.7 mb 0.00 in0.0 mm 0.00 in0.0 mm 0.00 in0.0 mm
01:09 PM 74.1°F23.4°C 61.5°F16.4°C 65% 13.0 mph NW20.9 kmh NW 21.9 mph35.2 kmh 30.17 in1021.7 mb 0.00 in0.0 mm 0.00 in0.0 mm 0.00 in0.0 mm
01:19 PM 73.8°F23.2°C 61.3°F16.3°C 65% 13.0 mph NW20.9 kmh NW 21.0 mph33.8 kmh 30.17 in1021.7 mb 0.00 in0.0 mm 0.00 in0.0 mm 0.00 in0.0 mm
01:29 PM 74.3°F23.5°C 61.7°F16.5°C 65% 13.0 mph NW20.9 kmh NW 21.0 mph33.8 kmh 30.17 in1021.7 mb 0.00 in0.0 mm 0.00 in0.0 mm 0.00 in0.0 mm
01:39 PM 74.5°F23.6°C 61.0°F16.1°C 63% 12.1 mph NW19.5 kmh NW 21.9 mph35.2 kmh 30.17 in1021.7 mb 0.00 in0.0 mm 0.00 in0.0 mm 0.00 in0.0 mm
01:49 PM 73.9°F23.3°C 61.0°F16.1°C 64% 12.1 mph WNW19.5 kmh WNW 21.9 mph35.2 kmh 30.17 in1021.7 mb 0.00 in0.0 mm 0.00 in0.0 mm 0.00 in0.0 mm
01:59 PM 74.7°F23.7°C 61.2°F16.2°C 63% 11.0 mph 17.7 kmh 19.0 mph30.6 kmh 30.17 in1021.7 mb 0.00 in0.0 mm 0.00 in0.0 mm 0.00 in0.0 mm
02:09 PM 74.8°F23.8°C 61.3°F16.3°C 63% 11.0 mph NW17.7 kmh NW 23.0 mph37.0 kmh 30.17 in1021.7 mb 0.00 in0.0 mm 0.00 in0.0 mm 0.00 in0.0 mm
02:19 PM 74.5°F23.6°C 59.2°F15.1°C 59% 11.0 mph NNW17.7 kmh NNW 19.0 mph30.6 kmh 30.17 in1021.7 mb 0.00 in0.0 mm 0.00 in0.0 mm 0.00 in0.0 mm
02:29 PM 74.8°F23.8°C 59.5°F15.3°C 59% 11.0 mph N17.7 kmh N 17.0 mph27.4 kmh 30.16 in1021.3 mb 0.00 in0.0 mm 0.00 in0.0 mm 0.00 in0.0 mm
02:39 PM 74.8°F23.8°C 59.5°F15.3°C 59% 12.1 mph NNW19.5 kmh NNW 21.0 mph33.8 kmh 30.17 in1021.7 mb 0.00 in0.0 mm 0.00 in0.0 mm 0.00 in0.0 mm
02:49 PM 74.3°F23.5°C 59.5°F15.3°C 60% 10.1 mph NNW16.3 kmh NNW 17.9 mph28.8 kmh 30.17 in1021.7 mb 0.00 in0.0 mm 0.00 in0.0 mm 0.00 in0.0 mm
02:59 PM 74.5°F23.6°C 60.1°F15.6°C 61% 12.1 mph NW19.5 kmh NW 21.9 mph35.2 kmh 30.16 in1021.3 mb 0.00 in0.0 mm 0.00 in0.0 mm 0.00 in0.0 mm
03:09 PM 74.7°F23.7°C 60.3°F15.7°C 61% 11.0 mph NW17.7 kmh NW 17.9 mph28.8 kmh 30.16 in1021.3 mb 0.00 in0.0 mm 0.00 in0.0 mm 0.00 in0.0 mm
03:19 PM 74.5°F23.6°C 60.6°F15.9°C 62% 11.0 mph NNW17.7 kmh NNW 21.0 mph33.8 kmh 30.17 in1021.7 mb 0.00 in0.0 mm 0.00 in0.0 mm 0.00 in0.0 mm
03:29 PM 73.8°F23.2°C 60.8°F16.0°C 64% 11.0 mph N17.7 kmh N 19.9 mph32.0 kmh 30.17 in1021.7 mb 0.00 in0.0 mm 0.00 in0.0 mm 0.00 in0.0 mm
03:39 PM 73.4°F23.0°C 60.4°F15.8°C 64% 12.1 mph NW19.5 kmh NW 19.9 mph32.0 kmh 30.17 in1021.7 mb 0.00 in0.0 mm 0.00 in0.0 mm 0.00 in0.0 mm
03:50 PM 72.9°F22.7°C 60.8°F16.0°C 66% 14.1 mph WNW22.7 kmh WNW 27.1 mph43.6 kmh 30.17 in1021.7 mb 0.00 in0.0 mm 0.00 in0.0 mm 0.00 in0.0 mm
04:00 PM 72.5°F22.5°C 60.1°F15.6°C 65% 14.1 mph NW22.7 kmh NW 23.9 mph38.5 kmh 30.17 in1021.7 mb 0.00 in0.0 mm 0.00 in0.0 mm 0.00 in0.0 mm
04:10 PM 72.1°F22.3°C 60.1°F15.6°C 66% 13.0 mph N20.9 kmh N 25.1 mph40.4 kmh 30.17 in1021.7 mb 0.00 in0.0 mm 0.00 in0.0 mm 0.00 in0.0 mm
04:20 PM 72.1°F22.3°C 60.6°F15.9°C 67% 14.1 mph NNW22.7 kmh NNW 27.1 mph43.6 kmh 30.17 in1021.7 mb 0.00 in0.0 mm 0.00 in0.0 mm 0.00 in0.0 mm
04:30 PM 72.0°F22.2°C 60.8°F16.0°C 68% 14.1 mph NNW22.7 kmh NNW 23.0 mph37.0 kmh 30.17 in1021.7 mb 0.00 in0.0 mm 0.00 in0.0 mm 0.00 in0.0 mm
04:40 PM 71.8°F22.1°C 60.6°F15.9°C 68% 12.1 mph N19.5 kmh N 21.9 mph35.2 kmh 30.17 in1021.7 mb 0.00 in0.0 mm 0.00 in0.0 mm 0.00 in0.0 mm
04:50 PM 72.0°F22.2°C 60.8°F16.0°C 68% 8.9 mph NW14.3 kmh NW 16.1 mph25.9 kmh 30.17 in1021.7 mb 0.00 in0.0 mm 0.00 in0.0 mm 0.00 in0.0 mm
05:00 PM 72.1°F22.3°C 60.6°F15.9°C 67% 10.1 mph NNW16.3 kmh NNW 19.9 mph32.0 kmh 30.17 in1021.7 mb 0.00 in0.0 mm 0.00 in0.0 mm 0.00 in0.0 mm
05:10 PM 71.8°F22.1°C 60.6°F15.9°C 68% 12.1 mph NNW19.5 kmh NNW 23.0 mph37.0 kmh 30.17 in1021.7 mb 0.00 in0.0 mm 0.00 in0.0 mm 0.00 in0.0 mm
05:20 PM 71.2°F21.8°C 60.6°F15.9°C 69% 11.0 mph NW17.7 kmh NW 21.0 mph33.8 kmh 30.17 in1021.7 mb 0.00 in0.0 mm 0.00 in0.0 mm 0.00 in0.0 mm
05:30 PM 71.1°F21.7°C 60.8°F16.0°C 70% 10.1 mph NNW16.3 kmh NNW 19.9 mph32.0 kmh 30.17 in1021.7 mb 0.00 in0.0 mm 0.00 in0.0 mm 0.00 in0.0 mm
05:40 PM 70.7°F21.5°C 60.8°F16.0°C 71% 10.1 mph NW16.3 kmh NW 19.9 mph32.0 kmh 30.17 in1021.7 mb 0.00 in0.0 mm 0.00 in0.0 mm 0.00 in0.0 mm
05:50 PM 70.2°F21.2°C 61.2°F16.2°C 73% 10.1 mph NW16.3 kmh NW 19.0 mph30.6 kmh 30.17 in1021.7 mb 0.00 in0.0 mm 0.00 in0.0 mm 0.00 in0.0 mm
06:00 PM 69.6°F20.9°C 61.0°F16.1°C 74% 10.1 mph NNW16.3 kmh NNW 21.9 mph35.2 kmh 30.18 in1022.0 mb 0.00 in0.0 mm 0.00 in0.0 mm 0.00 in0.0 mm
06:10 PM 68.7°F20.4°C 60.8°F16.0°C 76% 11.0 mph NNW17.7 kmh NNW 23.9 mph38.5 kmh 30.17 in1021.7 mb 0.00 in0.0 mm 0.00 in0.0 mm 0.00 in0.0 mm
06:20 PM 68.0°F20.0°C 60.8°F16.0°C 78% 11.0 mph NW17.7 kmh NW 19.9 mph32.0 kmh 30.17 in1021.7 mb 0.00 in0.0 mm 0.00 in0.0 mm 0.00 in0.0 mm
06:30 PM 67.3°F19.6°C 61.0°F16.1°C 80% 10.1 mph NW16.3 kmh NW 16.1 mph25.9 kmh 30.17 in1021.7 mb 0.00 in0.0 mm 0.00 in0.0 mm 0.00 in0.0 mm
06:40 PM 66.6°F19.2°C 60.6°F15.9°C 81% 8.9 mph NW14.3 kmh NW 19.9 mph32.0 kmh 30.17 in1021.7 mb 0.00 in0.0 mm 0.00 in0.0 mm 0.00 in0.0 mm
06:50 PM 66.0°F18.9°C 60.4°F15.8°C 82% 8.9 mph NW14.3 kmh NW 17.9 mph28.8 kmh 30.17 in1021.7 mb 0.00 in0.0 mm 0.00 in0.0 mm 0.00 in0.0 mm
07:00 PM 65.7°F18.7°C 60.4°F15.8°C 83% 8.1 mph N13.0 kmh N 14.1 mph22.7 kmh 30.17 in1021.7 mb 0.00 in0.0 mm 0.00 in0.0 mm 0.00 in0.0 mm
07:10 PM 65.1°F18.4°C 60.1°F15.6°C 84% 8.1 mph NW13.0 kmh NW 17.0 mph27.4 kmh 30.17 in1021.7 mb 0.00 in0.0 mm 0.00 in0.0 mm 0.00 in0.0 mm
07:20 PM 64.8°F18.2°C 60.1°F15.6°C 85% 8.1 mph WNW13.0 kmh WNW 14.1 mph22.7 kmh 30.18 in1022.0 mb 0.00 in0.0 mm 0.00 in0.0 mm 0.00 in0.0 mm
07:30 PM 64.6°F18.1°C 59.9°F15.5°C 85% 6.9 mph NW11.1 kmh NW 12.1 mph19.5 kmh 30.18 in1022.0 mb 0.00 in0.0 mm 0.00 in0.0 mm 0.00 in0.0 mm
07:40 PM 64.0°F17.8°C 59.7°F15.4°C 86% 6.9 mph 11.1 kmh 12.1 mph19.5 kmh 30.18 in1022.0 mb 0.00 in0.0 mm 0.00 in0.0 mm 0.00 in0.0 mm
07:50 PM 63.7°F17.6°C 59.4°F15.2°C 86% 6.9 mph NW11.1 kmh NW 12.1 mph19.5 kmh 30.18 in1022.0 mb 0.00 in0.0 mm 0.00 in0.0 mm 0.00 in0.0 mm
08:00 PM 63.3°F17.4°C 59.4°F15.2°C 87% 6.0 mph NW9.7 kmh NW 12.1 mph19.5 kmh 30.18 in1022.0 mb 0.00 in0.0 mm 0.00 in0.0 mm 0.00 in0.0 mm
08:20 PM 62.6°F17.0°C 58.6°F14.8°C 87% 4.9 mph 7.9 kmh 8.9 mph14.3 kmh 30.18 in1022.0 mb 0.00 in0.0 mm 0.00 in0.0 mm 0.00 in0.0 mm
08:30 PM 62.2°F16.8°C 58.3°F14.6°C 87% 4.0 mph NW6.4 kmh NW 8.1 mph13.0 kmh 30.19 in1022.4 mb 0.00 in0.0 mm 0.00 in0.0 mm 0.00 in0.0 mm
08:40 PM 61.9°F16.6°C 58.3°F14.6°C 88% 2.9 mph W4.7 kmh W 6.9 mph11.1 kmh 30.19 in1022.4 mb 0.00 in0.0 mm 0.00 in0.0 mm 0.00 in0.0 mm
08:50 PM 61.3°F16.3°C 57.7°F14.3°C 88% 2.9 mph NW4.7 kmh NW 4.9 mph7.9 kmh 30.19 in1022.4 mb 0.00 in0.0 mm 0.00 in0.0 mm 0.00 in0.0 mm
09:00 PM 61.2°F16.2°C 57.6°F14.2°C 88% 2.9 mph WNW4.7 kmh WNW 8.1 mph13.0 kmh 30.19 in1022.4 mb 0.00 in0.0 mm 0.00 in0.0 mm 0.00 in0.0 mm
09:10 PM 60.6°F15.9°C 57.0°F13.9°C 88% 2.9 mph WNW4.7 kmh WNW 6.0 mph9.7 kmh 30.19 in1022.4 mb 0.00 in0.0 mm 0.00 in0.0 mm 0.00 in0.0 mm
09:20 PM 60.4°F15.8°C 56.8°F13.8°C 88% 2.0 mph WNW3.2 kmh WNW 4.9 mph7.9 kmh 30.19 in1022.4 mb 0.00 in0.0 mm 0.00 in0.0 mm 0.00 in0.0 mm
09:30 PM 60.1°F15.6°C 56.5°F13.6°C 88% 2.9 mph NNW4.7 kmh NNW 6.0 mph9.7 kmh 30.19 in1022.4 mb 0.00 in0.0 mm 0.00 in0.0 mm 0.00 in0.0 mm
09:40 PM 59.7°F15.4°C 56.5°F13.6°C 89% 2.0 mph WNW3.2 kmh WNW 6.0 mph9.7 kmh 30.20 in1022.7 mb 0.00 in0.0 mm 0.00 in0.0 mm 0.00 in0.0 mm
09:50 PM 59.7°F15.4°C 56.5°F13.6°C 89% 2.9 mph NW4.7 kmh NW 4.9 mph7.9 kmh 30.19 in1022.4 mb 0.00 in0.0 mm 0.00 in0.0 mm 0.00 in0.0 mm
10:00 PM 59.9°F15.5°C 57.0°F13.9°C 90% 2.9 mph WNW4.7 kmh WNW 6.9 mph11.1 kmh 30.20 in1022.7 mb 0.00 in0.0 mm 0.00 in0.0 mm 0.00 in0.0 mm
10:10 PM 60.1°F15.6°C 57.2°F14.0°C 90% 4.0 mph NNW6.4 kmh NNW 8.9 mph14.3 kmh 30.20 in1022.7 mb 0.00 in0.0 mm 0.00 in0.0 mm 0.00 in0.0 mm
10:20 PM 60.1°F15.6°C 57.2°F14.0°C 90% 2.0 mph W3.2 kmh W 6.9 mph11.1 kmh 30.20 in1022.7 mb 0.00 in0.0 mm 0.00 in0.0 mm 0.00 in0.0 mm
10:31 PM 59.7°F15.4°C 56.8°F13.8°C 90% 2.0 mph WNW3.2 kmh WNW 6.9 mph11.1 kmh 30.20 in1022.7 mb 0.00 in0.0 mm 0.00 in0.0 mm 0.00 in0.0 mm
10:41 PM 59.7°F15.4°C 57.0°F13.9°C 91% 2.0 mph NW3.2 kmh NW 6.0 mph9.7 kmh 30.20 in1022.7 mb 0.00 in0.0 mm 0.00 in0.0 mm 0.00 in0.0 mm
10:51 PM 59.7°F15.4°C 57.0°F13.9°C 91% 2.9 mph WNW4.7 kmh WNW 6.0 mph9.7 kmh 30.19 in1022.4 mb 0.00 in0.0 mm 0.00 in0.0 mm 0.00 in0.0 mm
11:01 PM 59.5°F15.3°C 56.8°F13.8°C 91% 2.0 mph WNW3.2 kmh WNW 4.0 mph6.4 kmh 30.19 in1022.4 mb 0.00 in0.0 mm 0.00 in0.0 mm 0.00 in0.0 mm
11:11 PM 59.4°F15.2°C 56.7°F13.7°C 91% 2.0 mph NW3.2 kmh NW 4.9 mph7.9 kmh 30.19 in1022.4 mb 0.00 in0.0 mm 0.00 in0.0 mm 0.00 in0.0 mm
11:21 PM 59.0°F15.0°C 56.3°F13.5°C 91% 2.0 mph NW3.2 kmh NW 2.9 mph4.7 kmh 30.19 in1022.4 mb 0.00 in0.0 mm 0.00 in0.0 mm 0.00 in0.0 mm
11:31 PM 58.8°F14.9°C 56.1°F13.4°C 91% Calm Calm 2.0 mph3.2 kmh 30.19 in1022.4 mb 0.00 in0.0 mm 0.00 in0.0 mm 0.00 in0.0 mm
11:41 PM 58.6°F14.8°C 56.3°F13.5°C 92% 0.9 mph W1.4 kmh W 2.9 mph4.7 kmh 30.19 in1022.4 mb 0.00 in0.0 mm 0.00 in0.0 mm 0.00 in0.0 mm
11:51 PM 58.5°F14.7°C 56.1°F13.4°C 92% 2.0 mph W3.2 kmh W 2.9 mph4.7 kmh 30.19 in1022.4 mb 0.00 in0.0 mm 0.00 in0.0 mm 0.00 in0.0 mm